sensor_id;sensor_type;location;lat;lon;timestamp;P1;durP1;ratioP1;P2;durP2;ratioP2
56239;SDS011;42154;51.992;5.896;2023-10-31T00:01:23;2.83;;;0.52;;
56239;SDS011;42154;51.992;5.896;2023-10-31T00:03:49;1.77;;;0.73;;
56239;SDS011;42154;51.992;5.896;2023-10-31T00:06:15;2.17;;;0.50;;
56239;SDS011;42154;51.992;5.896;2023-10-31T00:08:40;0.55;;;0.35;;
56239;SDS011;42154;51.992;5.896;2023-10-31T00:11:06;1.70;;;0.50;;
56239;SDS011;42154;51.992;5.896;2023-10-31T00:13:32;1.17;;;0.70;;
56239;SDS011;42154;51.992;5.896;2023-10-31T00:15:57;2.50;;;0.77;;
56239;SDS011;42154;51.992;5.896;2023-10-31T00:18:23;2.10;;;0.80;;
56239;SDS011;42154;51.992;5.896;2023-10-31T00:20:49;2.05;;;0.88;;
56239;SDS011;42154;51.992;5.896;2023-10-31T00:23:15;1.17;;;0.88;;
56239;SDS011;42154;51.992;5.896;2023-10-31T00:25:41;1.63;;;1.02;;
56239;SDS011;42154;51.992;5.896;2023-10-31T00:28:06;1.67;;;0.85;;
56239;SDS011;42154;51.992;5.896;2023-10-31T00:30:32;2.95;;;1.20;;
56239;SDS011;42154;51.992;5.896;2023-10-31T00:32:59;2.03;;;0.90;;
56239;SDS011;42154;51.992;5.896;2023-10-31T00:35:25;1.42;;;1.10;;
56239;SDS011;42154;51.992;5.896;2023-10-31T00:37:50;1.42;;;1.00;;
56239;SDS011;42154;51.992;5.896;2023-10-31T00:40:16;5.45;;;1.10;;
56239;SDS011;42154;51.992;5.896;2023-10-31T00:42:42;2.85;;;1.23;;
56239;SDS011;42154;51.992;5.896;2023-10-31T00:45:09;4.25;;;1.13;;
56239;SDS011;42154;51.992;5.896;2023-10-31T00:47:34;3.65;;;1.25;;
56239;SDS011;42154;51.992;5.896;2023-10-31T00:50:01;2.65;;;1.02;;
56239;SDS011;42154;51.992;5.896;2023-10-31T00:52:28;3.00;;;1.10;;
56239;SDS011;42154;51.992;5.896;2023-10-31T00:54:54;1.67;;;0.85;;
56239;SDS011;42154;51.992;5.896;2023-10-31T00:57:20;3.00;;;1.23;;
56239;SDS011;42154;51.992;5.896;2023-10-31T00:59:46;2.13;;;0.82;;
56239;SDS011;42154;51.992;5.896;2023-10-31T01:02:11;5.63;;;1.83;;
56239;SDS011;42154;51.992;5.896;2023-10-31T01:04:37;3.70;;;1.67;;
56239;SDS011;42154;51.992;5.896;2023-10-31T01:07:03;3.55;;;1.63;;
56239;SDS011;42154;51.992;5.896;2023-10-31T01:09:29;5.20;;;1.80;;
56239;SDS011;42154;51.992;5.896;2023-10-31T01:11:55;5.70;;;2.97;;
56239;SDS011;42154;51.992;5.896;2023-10-31T01:14:21;4.43;;;2.17;;
56239;SDS011;42154;51.992;5.896;2023-10-31T01:16:46;5.50;;;3.28;;
56239;SDS011;42154;51.992;5.896;2023-10-31T01:19:13;3.97;;;3.20;;
56239;SDS011;42154;51.992;5.896;2023-10-31T01:21:38;7.97;;;4.80;;
56239;SDS011;42154;51.992;5.896;2023-10-31T01:24:04;7.57;;;4.60;;
56239;SDS011;42154;51.992;5.896;2023-10-31T01:26:30;5.47;;;4.10;;
56239;SDS011;42154;51.992;5.896;2023-10-31T01:28:56;8.93;;;5.45;;
56239;SDS011;42154;51.992;5.896;2023-10-31T01:31:23;5.35;;;4.40;;
56239;SDS011;42154;51.992;5.896;2023-10-31T01:33:49;8.02;;;5.30;;
56239;SDS011;42154;51.992;5.896;2023-10-31T01:36:15;10.85;;;6.57;;
56239;SDS011;42154;51.992;5.896;2023-10-31T01:38:41;9.90;;;7.07;;
56239;SDS011;42154;51.992;5.896;2023-10-31T01:41:07;10.02;;;7.15;;
56239;SDS011;42154;51.992;5.896;2023-10-31T01:43:33;8.23;;;6.60;;
56239;SDS011;42154;51.992;5.896;2023-10-31T01:46:01;11.50;;;8.73;;
56239;SDS011;42154;51.992;5.896;2023-10-31T01:48:29;13.30;;;8.20;;
56239;SDS011;42154;51.992;5.896;2023-10-31T01:50:58;9.85;;;7.32;;
56239;SDS011;42154;51.992;5.896;2023-10-31T01:53:26;10.70;;;7.95;;
56239;SDS011;42154;51.992;5.896;2023-10-31T01:55:54;12.18;;;8.23;;
56239;SDS011;42154;51.992;5.896;2023-10-31T01:58:23;11.25;;;8.55;;
56239;SDS011;42154;51.992;5.896;2023-10-31T02:00:54;12.48;;;7.70;;
56239;SDS011;42154;51.992;5.896;2023-10-31T02:03:20;10.93;;;8.95;;
56239;SDS011;42154;51.992;5.896;2023-10-31T02:05:46;13.60;;;9.57;;
56239;SDS011;42154;51.992;5.896;2023-10-31T02:08:12;10.70;;;8.55;;
56239;SDS011;42154;51.992;5.896;2023-10-31T02:10:38;11.60;;;9.00;;
56239;SDS011;42154;51.992;5.896;2023-10-31T02:13:14;14.75;;;10.60;;
56239;SDS011;42154;51.992;5.896;2023-10-31T02:15:40;16.27;;;10.55;;
56239;SDS011;42154;51.992;5.896;2023-10-31T02:18:07;15.10;;;9.85;;
56239;SDS011;42154;51.992;5.896;2023-10-31T02:20:33;17.20;;;11.40;;
56239;SDS011;42154;51.992;5.896;2023-10-31T02:22:59;16.10;;;11.70;;
56239;SDS011;42154;51.992;5.896;2023-10-31T02:25:25;16.70;;;10.35;;
56239;SDS011;42154;51.992;5.896;2023-10-31T02:27:51;13.00;;;9.38;;
56239;SDS011;42154;51.992;5.896;2023-10-31T02:30:17;15.52;;;10.80;;
56239;SDS011;42154;51.992;5.896;2023-10-31T02:32:42;13.93;;;10.52;;
56239;SDS011;42154;51.992;5.896;2023-10-31T02:35:08;14.80;;;9.48;;
56239;SDS011;42154;51.992;5.896;2023-10-31T02:37:34;15.15;;;11.10;;
56239;SDS011;42154;51.992;5.896;2023-10-31T02:40:00;14.15;;;9.43;;
56239;SDS011;42154;51.992;5.896;2023-10-31T02:42:26;13.23;;;9.43;;
56239;SDS011;42154;51.992;5.896;2023-10-31T02:44:52;13.13;;;8.85;;
56239;SDS011;42154;51.992;5.896;2023-10-31T02:47:19;12.95;;;8.82;;
56239;SDS011;42154;51.992;5.896;2023-10-31T02:49:45;11.63;;;8.82;;
56239;SDS011;42154;51.992;5.896;2023-10-31T02:52:10;11.70;;;8.90;;
56239;SDS011;42154;51.992;5.896;2023-10-31T02:54:37;11.23;;;8.52;;
56239;SDS011;42154;51.992;5.896;2023-10-31T02:57:03;14.40;;;9.68;;
56239;SDS011;42154;51.992;5.896;2023-10-31T02:59:29;11.52;;;9.25;;
56239;SDS011;42154;51.992;5.896;2023-10-31T03:01:56;14.88;;;10.25;;
56239;SDS011;42154;51.992;5.896;2023-10-31T03:04:22;17.17;;;11.48;;
56239;SDS011;42154;51.992;5.896;2023-10-31T03:06:48;19.08;;;12.15;;
56239;SDS011;42154;51.992;5.896;2023-10-31T03:09:14;14.98;;;10.90;;
56239;SDS011;42154;51.992;5.896;2023-10-31T03:11:40;12.77;;;9.77;;
56239;SDS011;42154;51.992;5.896;2023-10-31T03:14:06;14.25;;;11.13;;
56239;SDS011;42154;51.992;5.896;2023-10-31T03:16:32;13.77;;;10.05;;
56239;SDS011;42154;51.992;5.896;2023-10-31T03:18:58;10.80;;;8.65;;
56239;SDS011;42154;51.992;5.896;2023-10-31T03:21:24;11.73;;;9.23;;
56239;SDS011;42154;51.992;5.896;2023-10-31T03:23:51;12.02;;;9.30;;
56239;SDS011;42154;51.992;5.896;2023-10-31T03:26:18;14.73;;;11.13;;
56239;SDS011;42154;51.992;5.896;2023-10-31T03:28:45;16.05;;;11.82;;
56239;SDS011;42154;51.992;5.896;2023-10-31T03:31:11;14.45;;;11.10;;
56239;SDS011;42154;51.992;5.896;2023-10-31T03:33:37;13.68;;;10.90;;
56239;SDS011;42154;51.992;5.896;2023-10-31T03:36:03;13.38;;;10.95;;
56239;SDS011;42154;51.992;5.896;2023-10-31T03:38:33;14.07;;;11.17;;
56239;SDS011;42154;51.992;5.896;2023-10-31T03:41:00;11.95;;;10.45;;
56239;SDS011;42154;51.992;5.896;2023-10-31T03:43:25;19.75;;;13.57;;
56239;SDS011;42154;51.992;5.896;2023-10-31T03:45:51;15.07;;;11.60;;
56239;SDS011;42154;51.992;5.896;2023-10-31T03:48:17;16.50;;;12.80;;
56239;SDS011;42154;51.992;5.896;2023-10-31T03:50:43;16.10;;;12.25;;
56239;SDS011;42154;51.992;5.896;2023-10-31T03:53:09;12.75;;;10.68;;
56239;SDS011;42154;51.992;5.896;2023-10-31T03:55:35;13.98;;;10.70;;
56239;SDS011;42154;51.992;5.896;2023-10-31T03:58:01;11.40;;;9.27;;
56239;SDS011;42154;51.992;5.896;2023-10-31T04:00:27;10.02;;;8.65;;
56239;SDS011;42154;51.992;5.896;2023-10-31T04:02:53;11.02;;;7.90;;
56239;SDS011;42154;51.992;5.896;2023-10-31T04:05:18;8.20;;;7.13;;
56239;SDS011;42154;51.992;5.896;2023-10-31T04:07:47;11.43;;;7.57;;
56239;SDS011;42154;51.992;5.896;2023-10-31T04:10:14;13.02;;;8.35;;
56239;SDS011;42154;51.992;5.896;2023-10-31T04:12:41;9.80;;;7.20;;
56239;SDS011;42154;51.992;5.896;2023-10-31T04:15:07;9.98;;;7.63;;
56239;SDS011;42154;51.992;5.896;2023-10-31T04:17:33;9.85;;;7.30;;
56239;SDS011;42154;51.992;5.896;2023-10-31T04:19:59;10.95;;;7.65;;
56239;SDS011;42154;51.992;5.896;2023-10-31T04:22:25;7.75;;;6.40;;
56239;SDS011;42154;51.992;5.896;2023-10-31T04:24:51;9.45;;;7.50;;
56239;SDS011;42154;51.992;5.896;2023-10-31T04:27:17;8.23;;;6.78;;
56239;SDS011;42154;51.992;5.896;2023-10-31T04:29:43;10.43;;;7.35;;
56239;SDS011;42154;51.992;5.896;2023-10-31T04:32:09;9.00;;;6.72;;
56239;SDS011;42154;51.992;5.896;2023-10-31T04:34:35;10.18;;;6.25;;
56239;SDS011;42154;51.992;5.896;2023-10-31T04:37:01;9.07;;;7.25;;
56239;SDS011;42154;51.992;5.896;2023-10-31T04:39:27;7.82;;;5.75;;
56239;SDS011;42154;51.992;5.896;2023-10-31T04:41:52;6.55;;;5.40;;
56239;SDS011;42154;51.992;5.896;2023-10-31T04:44:18;10.43;;;5.82;;
56239;SDS011;42154;51.992;5.896;2023-10-31T04:46:44;9.02;;;5.32;;
56239;SDS011;42154;51.992;5.896;2023-10-31T04:49:10;9.32;;;5.68;;
56239;SDS011;42154;51.992;5.896;2023-10-31T04:51:36;5.80;;;4.72;;
56239;SDS011;42154;51.992;5.896;2023-10-31T04:54:03;9.63;;;5.35;;
56239;SDS011;42154;51.992;5.896;2023-10-31T04:56:29;6.57;;;4.57;;
56239;SDS011;42154;51.992;5.896;2023-10-31T04:58:55;8.93;;;5.25;;
56239;SDS011;42154;51.992;5.896;2023-10-31T05:01:20;8.20;;;5.20;;
56239;SDS011;42154;51.992;5.896;2023-10-31T05:03:46;6.88;;;4.95;;
56239;SDS011;42154;51.992;5.896;2023-10-31T05:06:12;7.10;;;4.97;;
56239;SDS011;42154;51.992;5.896;2023-10-31T05:08:38;7.78;;;5.03;;
56239;SDS011;42154;51.992;5.896;2023-10-31T05:11:03;7.75;;;5.53;;
56239;SDS011;42154;51.992;5.896;2023-10-31T05:13:29;7.60;;;5.13;;
56239;SDS011;42154;51.992;5.896;2023-10-31T05:15:55;6.07;;;4.45;;
56239;SDS011;42154;51.992;5.896;2023-10-31T05:18:21;7.70;;;5.43;;
56239;SDS011;42154;51.992;5.896;2023-10-31T05:20:47;8.90;;;4.85;;
56239;SDS011;42154;51.992;5.896;2023-10-31T05:23:13;8.52;;;5.82;;
56239;SDS011;42154;51.992;5.896;2023-10-31T05:25:39;7.40;;;5.75;;
56239;SDS011;42154;51.992;5.896;2023-10-31T05:28:04;6.97;;;5.03;;
56239;SDS011;42154;51.992;5.896;2023-10-31T05:30:30;7.80;;;5.68;;
56239;SDS011;42154;51.992;5.896;2023-10-31T05:32:56;9.57;;;5.05;;
56239;SDS011;42154;51.992;5.896;2023-10-31T05:35:22;8.55;;;5.28;;
56239;SDS011;42154;51.992;5.896;2023-10-31T05:37:47;9.57;;;5.53;;
56239;SDS011;42154;51.992;5.896;2023-10-31T05:40:14;7.72;;;5.05;;
56239;SDS011;42154;51.992;5.896;2023-10-31T05:42:41;7.53;;;4.85;;
56239;SDS011;42154;51.992;5.896;2023-10-31T05:45:07;8.10;;;5.40;;
56239;SDS011;42154;51.992;5.896;2023-10-31T05:47:33;9.02;;;5.60;;
56239;SDS011;42154;51.992;5.896;2023-10-31T05:49:59;8.95;;;6.35;;
56239;SDS011;42154;51.992;5.896;2023-10-31T05:52:28;9.02;;;6.13;;
56239;SDS011;42154;51.992;5.896;2023-10-31T05:54:57;8.10;;;5.50;;
56239;SDS011;42154;51.992;5.896;2023-10-31T05:57:23;7.57;;;5.43;;
56239;SDS011;42154;51.992;5.896;2023-10-31T05:59:49;7.72;;;6.18;;
56239;SDS011;42154;51.992;5.896;2023-10-31T06:02:15;9.45;;;6.55;;
56239;SDS011;42154;51.992;5.896;2023-10-31T06:04:40;8.25;;;6.20;;
56239;SDS011;42154;51.992;5.896;2023-10-31T06:07:06;7.68;;;5.55;;
56239;SDS011;42154;51.992;5.896;2023-10-31T06:09:32;9.18;;;6.22;;
56239;SDS011;42154;51.992;5.896;2023-10-31T06:11:59;8.77;;;6.15;;
56239;SDS011;42154;51.992;5.896;2023-10-31T06:14:25;8.05;;;5.82;;
56239;SDS011;42154;51.992;5.896;2023-10-31T06:16:51;8.18;;;5.25;;
56239;SDS011;42154;51.992;5.896;2023-10-31T06:19:17;7.45;;;5.45;;
56239;SDS011;42154;51.992;5.896;2023-10-31T06:21:42;6.95;;;4.97;;
56239;SDS011;42154;51.992;5.896;2023-10-31T06:24:08;7.47;;;4.78;;
56239;SDS011;42154;51.992;5.896;2023-10-31T06:26:34;8.18;;;5.20;;
56239;SDS011;42154;51.992;5.896;2023-10-31T06:29:00;4.95;;;3.88;;
56239;SDS011;42154;51.992;5.896;2023-10-31T06:31:26;4.88;;;3.33;;
56239;SDS011;42154;51.992;5.896;2023-10-31T06:33:52;4.35;;;3.55;;
56239;SDS011;42154;51.992;5.896;2023-10-31T06:36:18;4.45;;;3.45;;
56239;SDS011;42154;51.992;5.896;2023-10-31T06:38:43;3.97;;;2.90;;
56239;SDS011;42154;51.992;5.896;2023-10-31T06:41:09;5.22;;;2.67;;
56239;SDS011;42154;51.992;5.896;2023-10-31T06:43:35;4.53;;;2.33;;
56239;SDS011;42154;51.992;5.896;2023-10-31T06:46:01;3.85;;;2.10;;
56239;SDS011;42154;51.992;5.896;2023-10-31T06:48:29;4.50;;;2.50;;
56239;SDS011;42154;51.992;5.896;2023-10-31T06:50:55;2.75;;;1.90;;
56239;SDS011;42154;51.992;5.896;2023-10-31T06:53:20;4.15;;;1.98;;
56239;SDS011;42154;51.992;5.896;2023-10-31T06:55:46;2.83;;;1.55;;
56239;SDS011;42154;51.992;5.896;2023-10-31T06:58:12;2.08;;;1.60;;
56239;SDS011;42154;51.992;5.896;2023-10-31T07:00:38;3.17;;;1.70;;
56239;SDS011;42154;51.992;5.896;2023-10-31T07:03:03;2.50;;;1.75;;
56239;SDS011;42154;51.992;5.896;2023-10-31T07:05:34;3.58;;;2.05;;
56239;SDS011;42154;51.992;5.896;2023-10-31T07:08:00;4.97;;;2.10;;
56239;SDS011;42154;51.992;5.896;2023-10-31T07:10:27;5.63;;;2.40;;
56239;SDS011;42154;51.992;5.896;2023-10-31T07:12:53;2.47;;;2.03;;
56239;SDS011;42154;51.992;5.896;2023-10-31T07:15:19;4.90;;;3.50;;
56239;SDS011;42154;51.992;5.896;2023-10-31T07:17:46;6.90;;;4.47;;
56239;SDS011;42154;51.992;5.896;2023-10-31T07:20:12;5.40;;;3.78;;
56239;SDS011;42154;51.992;5.896;2023-10-31T07:22:38;7.68;;;5.13;;
56239;SDS011;42154;51.992;5.896;2023-10-31T07:25:05;8.05;;;6.10;;
56239;SDS011;42154;51.992;5.896;2023-10-31T07:27:31;7.90;;;5.55;;
56239;SDS011;42154;51.992;5.896;2023-10-31T07:29:57;8.05;;;5.60;;
56239;SDS011;42154;51.992;5.896;2023-10-31T07:32:23;9.52;;;6.55;;
56239;SDS011;42154;51.992;5.896;2023-10-31T07:34:50;10.82;;;7.72;;
56239;SDS011;42154;51.992;5.896;2023-10-31T07:37:15;12.80;;;8.95;;
56239;SDS011;42154;51.992;5.896;2023-10-31T07:39:41;11.18;;;8.30;;
56239;SDS011;42154;51.992;5.896;2023-10-31T07:42:07;10.70;;;8.15;;
56239;SDS011;42154;51.992;5.896;2023-10-31T07:44:33;10.70;;;8.10;;
56239;SDS011;42154;51.992;5.896;2023-10-31T07:46:59;10.30;;;7.05;;
56239;SDS011;42154;51.992;5.896;2023-10-31T07:49:24;10.80;;;8.18;;
56239;SDS011;42154;51.992;5.896;2023-10-31T07:51:50;13.15;;;8.65;;
56239;SDS011;42154;51.992;5.896;2023-10-31T07:54:16;13.25;;;9.90;;
56239;SDS011;42154;51.992;5.896;2023-10-31T07:56:42;13.90;;;9.80;;
56239;SDS011;42154;51.992;5.896;2023-10-31T07:59:08;16.90;;;12.48;;
56239;SDS011;42154;51.992;5.896;2023-10-31T08:01:34;16.63;;;12.88;;
56239;SDS011;42154;51.992;5.896;2023-10-31T08:04:00;17.15;;;13.05;;
56239;SDS011;42154;51.992;5.896;2023-10-31T08:06:26;18.65;;;11.93;;
56239;SDS011;42154;51.992;5.896;2023-10-31T08:08:52;17.60;;;12.93;;
56239;SDS011;42154;51.992;5.896;2023-10-31T08:11:18;16.63;;;12.25;;
56239;SDS011;42154;51.992;5.896;2023-10-31T08:13:44;17.23;;;12.45;;
56239;SDS011;42154;51.992;5.896;2023-10-31T08:16:10;15.63;;;11.80;;
56239;SDS011;42154;51.992;5.896;2023-10-31T08:18:35;17.63;;;13.32;;
56239;SDS011;42154;51.992;5.896;2023-10-31T08:21:01;15.90;;;12.23;;
56239;SDS011;42154;51.992;5.896;2023-10-31T08:23:28;15.10;;;11.75;;
56239;SDS011;42154;51.992;5.896;2023-10-31T08:25:54;15.70;;;13.27;;
56239;SDS011;42154;51.992;5.896;2023-10-31T08:28:20;15.07;;;11.73;;
56239;SDS011;42154;51.992;5.896;2023-10-31T08:30:46;15.23;;;11.00;;
56239;SDS011;42154;51.992;5.896;2023-10-31T08:33:13;12.75;;;10.35;;
56239;SDS011;42154;51.992;5.896;2023-10-31T08:35:39;14.63;;;11.70;;
56239;SDS011;42154;51.992;5.896;2023-10-31T08:38:05;12.43;;;9.13;;
56239;SDS011;42154;51.992;5.896;2023-10-31T08:40:31;14.23;;;9.88;;
56239;SDS011;42154;51.992;5.896;2023-10-31T08:42:56;14.32;;;9.73;;
56239;SDS011;42154;51.992;5.896;2023-10-31T08:45:22;13.02;;;9.73;;
56239;SDS011;42154;51.992;5.896;2023-10-31T08:47:48;11.90;;;9.05;;
56239;SDS011;42154;51.992;5.896;2023-10-31T08:50:14;11.93;;;8.45;;
56239;SDS011;42154;51.992;5.896;2023-10-31T08:52:40;12.48;;;8.55;;
56239;SDS011;42154;51.992;5.896;2023-10-31T08:55:05;11.23;;;8.38;;
56239;SDS011;42154;51.992;5.896;2023-10-31T08:57:31;13.32;;;7.88;;
56239;SDS011;42154;51.992;5.896;2023-10-31T08:59:59;9.73;;;6.85;;
56239;SDS011;42154;51.992;5.896;2023-10-31T09:02:25;11.13;;;7.28;;
56239;SDS011;42154;51.992;5.896;2023-10-31T09:04:52;9.95;;;7.22;;
56239;SDS011;42154;51.992;5.896;2023-10-31T09:07:17;10.02;;;7.28;;
56239;SDS011;42154;51.992;5.896;2023-10-31T10:25:41;12.25;;;7.57;;
56239;SDS011;42154;51.992;5.896;2023-10-31T10:28:08;12.82;;;7.07;;
56239;SDS011;42154;51.992;5.896;2023-10-31T10:30:37;12.25;;;6.72;;
56239;SDS011;42154;51.992;5.896;2023-10-31T10:33:03;9.38;;;6.03;;
56239;SDS011;42154;51.992;5.896;2023-10-31T10:35:29;7.38;;;5.30;;
56239;SDS011;42154;51.992;5.896;2023-10-31T10:37:54;7.03;;;6.07;;
56239;SDS011;42154;51.992;5.896;2023-10-31T10:40:21;11.45;;;6.97;;
56239;SDS011;42154;51.992;5.896;2023-10-31T10:42:47;9.35;;;6.75;;
56239;SDS011;42154;51.992;5.896;2023-10-31T10:45:15;9.02;;;5.35;;
56239;SDS011;42154;51.992;5.896;2023-10-31T10:47:45;10.95;;;5.90;;
56239;SDS011;42154;51.992;5.896;2023-10-31T10:50:13;9.77;;;4.60;;
56239;SDS011;42154;51.992;5.896;2023-10-31T10:52:44;7.65;;;5.80;;
56239;SDS011;42154;51.992;5.896;2023-10-31T10:55:19;7.20;;;5.65;;
56239;SDS011;42154;51.992;5.896;2023-10-31T11:00:31;7.22;;;5.03;;
56239;SDS011;42154;51.992;5.896;2023-10-31T11:02:57;5.43;;;4.10;;
56239;SDS011;42154;51.992;5.896;2023-10-31T11:05:23;8.05;;;5.45;;
56239;SDS011;42154;51.992;5.896;2023-10-31T11:07:49;8.23;;;5.03;;
56239;SDS011;42154;51.992;5.896;2023-10-31T11:10:17;6.22;;;4.25;;
56239;SDS011;42154;51.992;5.896;2023-10-31T11:12:43;9.02;;;5.43;;
56239;SDS011;42154;51.992;5.896;2023-10-31T11:15:09;9.10;;;5.38;;
56239;SDS011;42154;51.992;5.896;2023-10-31T11:17:40;7.18;;;5.82;;
56239;SDS011;42154;51.992;5.896;2023-10-31T11:20:09;10.07;;;4.65;;
56239;SDS011;42154;51.992;5.896;2023-10-31T11:22:37;8.70;;;5.43;;
56239;SDS011;42154;51.992;5.896;2023-10-31T11:25:14;6.40;;;5.22;;
56239;SDS011;42154;51.992;5.896;2023-10-31T11:27:43;9.35;;;5.43;;
56239;SDS011;42154;51.992;5.896;2023-10-31T11:33:00;8.93;;;7.28;;
56239;SDS011;42154;51.992;5.896;2023-10-31T11:35:29;12.83;;;8.77;;
56239;SDS011;42154;51.992;5.896;2023-10-31T11:38:05;14.82;;;11.45;;
56239;SDS011;42154;51.992;5.896;2023-10-31T11:40:32;16.88;;;13.50;;
56239;SDS011;42154;51.992;5.896;2023-10-31T11:42:58;20.85;;;15.57;;
56239;SDS011;42154;51.992;5.896;2023-10-31T11:45:33;21.90;;;15.50;;
56239;SDS011;42154;51.992;5.896;2023-10-31T11:48:02;17.35;;;14.13;;
56239;SDS011;42154;51.992;5.896;2023-10-31T11:50:32;19.20;;;15.30;;
56239;SDS011;42154;51.992;5.896;2023-10-31T11:53:08;17.40;;;14.57;;
56239;SDS011;42154;51.992;5.896;2023-10-31T11:55:42;17.73;;;14.80;;
56239;SDS011;42154;51.992;5.896;2023-10-31T12:00:51;18.10;;;15.32;;
56239;SDS011;42154;51.992;5.896;2023-10-31T12:03:21;19.75;;;15.23;;
56239;SDS011;42154;51.992;5.896;2023-10-31T12:05:59;20.77;;;15.73;;
56239;SDS011;42154;51.992;5.896;2023-10-31T12:11:05;21.17;;;15.50;;
56239;SDS011;42154;51.992;5.896;2023-10-31T12:13:36;21.48;;;15.82;;
56239;SDS011;42154;51.992;5.896;2023-10-31T12:16:04;20.13;;;14.52;;
56239;SDS011;42154;51.992;5.896;2023-10-31T12:18:32;22.27;;;15.65;;
56239;SDS011;42154;51.992;5.896;2023-10-31T12:21:02;19.17;;;15.18;;
56239;SDS011;42154;51.992;5.896;2023-10-31T12:23:28;21.05;;;14.80;;
56239;SDS011;42154;51.992;5.896;2023-10-31T12:25:54;19.65;;;13.95;;
56239;SDS011;42154;51.992;5.896;2023-10-31T12:28:20;17.85;;;14.25;;
56239;SDS011;42154;51.992;5.896;2023-10-31T12:30:47;22.50;;;14.18;;
56239;SDS011;42154;51.992;5.896;2023-10-31T12:33:14;27.17;;;17.42;;
56239;SDS011;42154;51.992;5.896;2023-10-31T12:35:41;22.55;;;16.38;;
56239;SDS011;42154;51.992;5.896;2023-10-31T12:38:11;24.33;;;14.45;;
56239;SDS011;42154;51.992;5.896;2023-10-31T12:40:39;24.48;;;16.08;;
56239;SDS011;42154;51.992;5.896;2023-10-31T12:43:07;27.02;;;16.30;;
56239;SDS011;42154;51.992;5.896;2023-10-31T12:45:33;23.08;;;14.10;;
56239;SDS011;42154;51.992;5.896;2023-10-31T12:48:00;19.67;;;13.95;;
56239;SDS011;42154;51.992;5.896;2023-10-31T12:50:30;23.55;;;15.50;;
56239;SDS011;42154;51.992;5.896;2023-10-31T12:52:56;22.10;;;14.40;;
56239;SDS011;42154;51.992;5.896;2023-10-31T12:55:23;21.38;;;14.68;;
56239;SDS011;42154;51.992;5.896;2023-10-31T12:57:50;23.92;;;15.77;;
56239;SDS011;42154;51.992;5.896;2023-10-31T13:00:17;23.65;;;15.75;;
56239;SDS011;42154;51.992;5.896;2023-10-31T13:02:49;26.98;;;16.70;;
56239;SDS011;42154;51.992;5.896;2023-10-31T13:05:16;27.27;;;16.48;;
56239;SDS011;42154;51.992;5.896;2023-10-31T13:07:49;27.38;;;17.10;;
56239;SDS011;42154;51.992;5.896;2023-10-31T13:10:16;25.38;;;18.08;;
56239;SDS011;42154;51.992;5.896;2023-10-31T13:12:43;24.70;;;14.82;;
56239;SDS011;42154;51.992;5.896;2023-10-31T13:15:10;20.55;;;14.07;;
56239;SDS011;42154;51.992;5.896;2023-10-31T13:17:36;23.85;;;14.90;;
56239;SDS011;42154;51.992;5.896;2023-10-31T13:20:04;24.20;;;16.00;;
56239;SDS011;42154;51.992;5.896;2023-10-31T13:22:31;25.63;;;14.88;;
56239;SDS011;42154;51.992;5.896;2023-10-31T13:24:57;23.23;;;14.98;;
56239;SDS011;42154;51.992;5.896;2023-10-31T13:27:23;21.30;;;14.40;;
56239;SDS011;42154;51.992;5.896;2023-10-31T13:29:48;22.85;;;14.73;;
56239;SDS011;42154;51.992;5.896;2023-10-31T13:32:15;21.20;;;15.30;;
56239;SDS011;42154;51.992;5.896;2023-10-31T13:34:41;22.35;;;15.15;;
56239;SDS011;42154;51.992;5.896;2023-10-31T13:37:07;19.95;;;14.75;;
56239;SDS011;42154;51.992;5.896;2023-10-31T13:39:33;20.30;;;14.18;;
56239;SDS011;42154;51.992;5.896;2023-10-31T13:41:59;23.55;;;13.93;;
56239;SDS011;42154;51.992;5.896;2023-10-31T13:44:25;20.10;;;13.65;;
56239;SDS011;42154;51.992;5.896;2023-10-31T13:46:50;18.27;;;12.43;;
56239;SDS011;42154;51.992;5.896;2023-10-31T13:49:16;18.40;;;13.27;;
56239;SDS011;42154;51.992;5.896;2023-10-31T13:51:42;18.08;;;12.82;;
56239;SDS011;42154;51.992;5.896;2023-10-31T13:54:07;19.60;;;13.88;;
56239;SDS011;42154;51.992;5.896;2023-10-31T13:56:33;19.98;;;12.52;;
56239;SDS011;42154;51.992;5.896;2023-10-31T13:58:59;19.75;;;13.23;;
56239;SDS011;42154;51.992;5.896;2023-10-31T14:01:25;21.15;;;13.45;;
56239;SDS011;42154;51.992;5.896;2023-10-31T14:03:51;19.35;;;14.65;;
56239;SDS011;42154;51.992;5.896;2023-10-31T14:06:16;18.85;;;13.48;;
56239;SDS011;42154;51.992;5.896;2023-10-31T14:08:42;18.30;;;13.00;;
56239;SDS011;42154;51.992;5.896;2023-10-31T14:11:08;18.60;;;13.57;;
56239;SDS011;42154;51.992;5.896;2023-10-31T14:13:37;21.02;;;15.15;;
56239;SDS011;42154;51.992;5.896;2023-10-31T14:16:03;15.68;;;13.05;;
56239;SDS011;42154;51.992;5.896;2023-10-31T14:18:29;17.77;;;12.25;;
56239;SDS011;42154;51.992;5.896;2023-10-31T14:20:56;15.88;;;12.77;;
56239;SDS011;42154;51.992;5.896;2023-10-31T14:23:22;17.48;;;12.68;;
56239;SDS011;42154;51.992;5.896;2023-10-31T14:25:47;16.63;;;12.77;;
56239;SDS011;42154;51.992;5.896;2023-10-31T14:28:13;17.63;;;12.25;;
56239;SDS011;42154;51.992;5.896;2023-10-31T14:30:39;15.60;;;13.80;;
56239;SDS011;42154;51.992;5.896;2023-10-31T14:33:05;17.75;;;13.80;;
56239;SDS011;42154;51.992;5.896;2023-10-31T14:35:31;15.07;;;11.60;;
56239;SDS011;42154;51.992;5.896;2023-10-31T14:37:56;18.40;;;12.30;;
56239;SDS011;42154;51.992;5.896;2023-10-31T14:40:22;17.45;;;13.13;;
56239;SDS011;42154;51.992;5.896;2023-10-31T14:42:48;18.02;;;13.65;;
56239;SDS011;42154;51.992;5.896;2023-10-31T14:45:14;18.20;;;13.85;;
56239;SDS011;42154;51.992;5.896;2023-10-31T14:47:40;21.92;;;17.27;;
56239;SDS011;42154;51.992;5.896;2023-10-31T14:50:06;19.83;;;16.35;;
56239;SDS011;42154;51.992;5.896;2023-10-31T14:52:32;19.23;;;15.27;;
56239;SDS011;42154;51.992;5.896;2023-10-31T14:54:58;17.90;;;13.55;;
56239;SDS011;42154;51.992;5.896;2023-10-31T14:57:24;18.27;;;15.90;;
56239;SDS011;42154;51.992;5.896;2023-10-31T14:59:49;18.30;;;13.63;;
56239;SDS011;42154;51.992;5.896;2023-10-31T15:02:15;14.38;;;11.88;;
56239;SDS011;42154;51.992;5.896;2023-10-31T15:04:41;13.63;;;10.20;;
56239;SDS011;42154;51.992;5.896;2023-10-31T15:07:06;12.77;;;9.90;;
56239;SDS011;42154;51.992;5.896;2023-10-31T15:09:32;15.35;;;11.18;;
56239;SDS011;42154;51.992;5.896;2023-10-31T15:11:58;13.82;;;10.88;;
56239;SDS011;42154;51.992;5.896;2023-10-31T15:14:24;13.20;;;10.93;;
56239;SDS011;42154;51.992;5.896;2023-10-31T15:16:49;9.55;;;7.78;;
56239;SDS011;42154;51.992;5.896;2023-10-31T15:19:15;11.10;;;7.28;;
56239;SDS011;42154;51.992;5.896;2023-10-31T15:21:41;8.65;;;6.70;;
56239;SDS011;42154;51.992;5.896;2023-10-31T15:24:06;9.32;;;6.28;;
56239;SDS011;42154;51.992;5.896;2023-10-31T15:26:35;7.32;;;5.40;;
56239;SDS011;42154;51.992;5.896;2023-10-31T15:29:01;7.68;;;5.38;;
56239;SDS011;42154;51.992;5.896;2023-10-31T15:31:27;6.70;;;5.55;;
56239;SDS011;42154;51.992;5.896;2023-10-31T15:33:53;7.03;;;5.03;;
56239;SDS011;42154;51.992;5.896;2023-10-31T15:36:19;5.95;;;4.43;;
56239;SDS011;42154;51.992;5.896;2023-10-31T15:38:44;5.35;;;3.80;;
56239;SDS011;42154;51.992;5.896;2023-10-31T15:41:10;6.03;;;4.57;;
56239;SDS011;42154;51.992;5.896;2023-10-31T15:43:37;4.20;;;3.80;;
56239;SDS011;42154;51.992;5.896;2023-10-31T15:46:03;5.35;;;4.82;;
56239;SDS011;42154;51.992;5.896;2023-10-31T15:48:29;4.60;;;4.15;;
56239;SDS011;42154;51.992;5.896;2023-10-31T15:50:54;7.07;;;5.80;;
56239;SDS011;42154;51.992;5.896;2023-10-31T15:53:20;8.23;;;6.00;;
56239;SDS011;42154;51.992;5.896;2023-10-31T15:55:47;7.45;;;5.43;;
56239;SDS011;42154;51.992;5.896;2023-10-31T15:58:13;5.75;;;4.90;;